Time;durP1;ratioP1;P1;durP2;ratioP2;P2;SDS_P1;SDS_P2;PMS_P1;PMS_P2;Temp;Humidity;BMP_temperature;BMP_pressure;BME280_temperature;BME280_humidity;BME280_pressure;Samples;Min_cycle;Max_cycle;Signal;HPM_P1;HPM_P2
2022/07/22 00:01:44;;;;;;;17.85;14.95;;;17.90;99.90;;;;;;5071780;28;20051;-54
2022/07/22 00:04:11;;;;;;;20.58;16.25;;;17.90;99.90;;;;;;5072963;28;20590;-52
2022/07/22 00:06:38;;;;;;;15.95;14.25;;;17.90;99.90;;;;;;5076028;28;20104;-52
2022/07/22 00:09:05;;;;;;;19.98;14.07;;;17.90;99.90;;;;;;5080660;28;20527;-54
2022/07/22 00:11:32;;;;;;;22.40;18.17;;;17.90;99.90;;;;;;5087945;28;20112;-54
2022/07/22 00:13:59;;;;;;;17.27;14.57;;;17.90;99.90;;;;;;5081123;28;20043;-51
2022/07/22 00:16:25;;;;;;;23.92;16.30;;;17.80;99.90;;;;;;5096803;28;20128;-50
2022/07/22 00:18:52;;;;;;;17.88;15.95;;;17.80;99.90;;;;;;5096456;28;20168;-53
2022/07/22 00:21:20;;;;;;;19.77;16.65;;;17.80;99.90;;;;;;5097237;28;20101;-54
2022/07/22 00:23:47;;;;;;;19.70;16.15;;;17.70;99.90;;;;;;5095593;28;20897;-55
2022/07/22 00:26:13;;;;;;;20.45;17.90;;;17.70;99.90;;;;;;5097004;28;20041;-54
2022/07/22 00:28:40;;;;;;;22.23;16.25;;;17.70;99.90;;;;;;5096681;28;20035;-52
2022/07/22 00:31:07;;;;;;;;;;;17.70;99.90;;;;;;5097834;28;20112;-52
2022/07/22 00:33:33;;;;;;;19.33;15.40;;;17.70;99.90;;;;;;5077715;28;19965;-54
2022/07/22 00:36:00;;;;;;;;;;;17.70;99.90;;;;;;5097004;28;20043;-53
2022/07/22 00:38:27;;;;;;;16.50;14.73;;;17.70;99.90;;;;;;5096673;28;19923;-53
2022/07/22 00:40:54;;;;;;;15.43;13.77;;;17.60;99.90;;;;;;5077794;28;20031;-55
2022/07/22 00:43:20;;;;;;;18.63;15.38;;;17.70;99.90;;;;;;5077423;28;20051;-52
2022/07/22 00:45:50;;;;;;;20.63;14.80;;;17.60;99.90;;;;;;5095994;28;20054;-53
2022/07/22 00:48:17;;;;;;;19.30;14.13;;;17.60;99.90;;;;;;5096949;28;20044;-54
2022/07/22 00:50:45;;;;;;;19.00;16.30;;;17.60;99.90;;;;;;5095884;28;20039;-53
2022/07/22 00:53:12;;;;;;;21.80;16.20;;;17.60;99.90;;;;;;5096616;28;20050;-53
2022/07/22 00:55:39;;;;;;;17.08;14.98;;;17.60;99.90;;;;;;5096500;28;20035;-50
2022/07/22 00:58:06;;;;;;;17.42;15.57;;;17.60;99.90;;;;;;5095768;28;20115;-50
2022/07/22 01:00:33;;;;;;;25.42;15.52;;;17.50;99.90;;;;;;5096539;28;20921;-53
2022/07/22 01:03:00;;;;;;;23.33;16.50;;;17.50;99.90;;;;;;5096099;28;20970;-53
2022/07/22 01:05:26;;;;;;;19.83;16.25;;;17.50;99.90;;;;;;5094579;28;20113;-51
2022/07/22 01:07:53;;;;;;;22.88;15.75;;;17.40;99.90;;;;;;5095495;28;20050;-53
2022/07/22 01:10:20;;;;;;;;;;;17.40;99.90;;;;;;5082846;28;20719;-51
2022/07/22 01:12:47;;;;;;;24.27;15.82;;;17.40;99.90;;;;;;5090609;28;20676;-54
2022/07/22 01:15:15;;;;;;;18.05;15.18;;;17.40;99.90;;;;;;5082601;28;20051;-52
2022/07/22 01:17:42;;;;;;;21.25;16.73;;;17.30;99.90;;;;;;5085868;28;20044;-53
2022/07/22 01:20:08;;;;;;;;;;;17.30;99.90;;;;;;5075912;28;20812;-51
2022/07/22 01:22:35;;;;;;;20.70;16.20;;;17.30;99.90;;;;;;5075697;28;19931;-51
2022/07/22 01:25:03;;;;;;;20.50;15.27;;;17.30;99.90;;;;;;5074185;28;20156;-53
2022/07/22 01:27:30;;;;;;;18.98;15.93;;;17.30;99.90;;;;;;5077579;28;20050;-53
2022/07/22 01:29:57;;;;;;;17.67;15.25;;;17.30;99.90;;;;;;5095803;28;20645;-53
2022/07/22 01:32:23;;;;;;;24.23;17.00;;;17.30;99.90;;;;;;5077238;28;20093;-53
2022/07/22 01:34:51;;;;;;;20.02;16.70;;;17.30;99.90;;;;;;5080824;28;20539;-54
2022/07/22 01:37:18;;;;;;;19.58;15.77;;;17.30;99.90;;;;;;5074755;28;20508;-53
2022/07/22 01:39:45;;;;;;;18.98;15.13;;;17.20;99.90;;;;;;5073773;28;20075;-51
2022/07/22 01:42:12;;;;;;;20.27;16.90;;;17.20;99.90;;;;;;5073195;28;20060;-54
2022/07/22 01:44:40;;;;;;;22.25;16.60;;;17.10;99.90;;;;;;5072960;28;20871;-51
2022/07/22 01:47:08;;;;;;;20.17;16.08;;;17.10;99.90;;;;;;5073453;28;20067;-52
2022/07/22 01:49:35;;;;;;;16.45;14.82;;;17.10;99.90;;;;;;5056153;28;20040;-53
2022/07/22 01:52:04;;;;;;;20.15;15.80;;;17.00;99.90;;;;;;5056386;28;20539;-54
2022/07/22 01:54:33;;;;;;;23.95;17.00;;;17.00;99.90;;;;;;5072211;28;20050;-54
2022/07/22 01:57:01;;;;;;;17.20;15.30;;;17.00;99.90;;;;;;5074988;28;20039;-54
2022/07/22 01:59:28;;;;;;;26.98;16.13;;;16.90;99.90;;;;;;5073008;28;20067;-55
2022/07/22 02:01:55;;;;;;;19.10;15.77;;;17.00;99.90;;;;;;5072980;28;20125;-53
2022/07/22 02:04:23;;;;;;;20.85;16.20;;;16.90;99.90;;;;;;5072046;28;20141;-54
2022/07/22 02:06:53;;;;;;;18.88;15.77;;;16.90;99.90;;;;;;5072542;28;20148;-54
2022/07/22 02:09:20;;;;;;;24.23;17.15;;;16.80;99.90;;;;;;5077765;28;20039;-54
2022/07/22 02:11:51;;;;;;;21.65;15.95;;;16.80;99.90;;;;;;5065964;28;20420;-55
2022/07/22 02:14:19;;;;;;;16.77;14.60;;;16.80;99.90;;;;;;5071951;28;20055;-54
2022/07/22 02:16:48;;;;;;;17.48;14.60;;;16.80;99.90;;;;;;5064654;28;20063;-53
2022/07/22 02:19:16;;;;;;;15.93;14.23;;;16.80;99.90;;;;;;5072249;28;20044;-54
2022/07/22 02:21:44;;;;;;;15.23;13.68;;;16.80;99.90;;;;;;5073861;28;20048;-55
2022/07/22 02:24:11;;;;;;;20.02;14.38;;;16.70;99.90;;;;;;5046879;28;20574;-56
2022/07/22 02:26:39;;;;;;;18.73;14.20;;;16.70;99.90;;;;;;5073629;28;20032;-55
2022/07/22 02:29:06;;;;;;;15.38;13.65;;;16.70;99.90;;;;;;5055054;28;20055;-51
2022/07/22 02:31:33;;;;;;;17.35;15.25;;;16.70;99.90;;;;;;5072729;28;20040;-53
2022/07/22 02:34:00;;;;;;;15.93;14.25;;;16.60;99.90;;;;;;5074080;28;20044;-55
2022/07/22 02:36:28;;;;;;;15.88;14.05;;;16.60;99.90;;;;;;5092706;28;20165;-54
2022/07/22 02:38:56;;;;;;;17.80;14.30;;;16.60;99.90;;;;;;5091604;28;20471;-52
2022/07/22 02:41:24;;;;;;;15.00;13.50;;;16.50;99.90;;;;;;5093009;28;20055;-53
2022/07/22 02:43:55;;;;;;;16.73;14.73;;;16.50;99.90;;;;;;5075511;28;20932;-55
2022/07/22 02:46:22;;;;;;;23.30;14.90;;;16.40;99.90;;;;;;5092457;28;20643;-54
2022/07/22 02:48:50;;;;;;;20.85;16.08;;;16.40;99.90;;;;;;5075430;28;20113;-54
2022/07/22 02:51:19;;;;;;;16.63;14.82;;;16.40;99.90;;;;;;5093521;28;20039;-54
2022/07/22 02:53:46;;;;;;;;;;;16.40;99.90;;;;;;5077002;28;20040;-54
2022/07/22 02:56:13;;;;;;;20.27;16.23;;;16.40;99.90;;;;;;5076884;28;20024;-56
2022/07/22 02:58:41;;;;;;;18.17;16.05;;;16.40;99.90;;;;;;5076690;28;20051;-55
2022/07/22 03:01:08;;;;;;;18.10;14.77;;;16.40;99.90;;;;;;5085449;28;20055;-53
2022/07/22 03:03:45;;;;;;;18.48;15.48;;;16.30;99.90;;;;;;5071483;28;20052;-55
2022/07/22 03:06:12;;;;;;;28.33;16.88;;;16.30;99.90;;;;;;5076107;28;20051;-54
2022/07/22 03:08:59;;;;;;;22.35;18.02;;;16.30;99.90;;;;;;5092212;28;20142;-56
2022/07/22 03:11:28;;;;;;;23.40;16.90;;;16.30;99.90;;;;;;5062248;28;20051;-56
2022/07/22 03:13:55;;;;;;;;;;;16.30;99.90;;;;;;5064936;28;20040;-54
2022/07/22 03:16:22;;;;;;;19.37;16.23;;;16.20;99.90;;;;;;5072991;28;19931;-54
2022/07/22 03:18:50;;;;;;;19.58;16.52;;;16.20;99.90;;;;;;5090139;28;20053;-53
2022/07/22 03:21:17;;;;;;;26.08;17.15;;;16.20;99.90;;;;;;5076518;28;20044;-54
2022/07/22 03:23:44;;;;;;;20.33;15.90;;;16.10;99.90;;;;;;5067994;28;20040;-52
2022/07/22 03:26:11;;;;;;;;;;;16.10;99.90;;;;;;5073788;28;20796;-54
2022/07/22 03:28:38;;;;;;;17.90;15.90;;;16.00;99.90;;;;;;5089094;28;20166;-53
2022/07/22 03:31:05;;;;;;;17.05;15.27;;;16.00;99.90;;;;;;5072869;28;20135;-55
2022/07/22 03:33:32;;;;;;;;;;;16.00;99.90;;;;;;5056118;28;20783;-55
2022/07/22 03:35:59;;;;;;;22.92;16.20;;;16.00;99.90;;;;;;5073809;28;20407;-53
2022/07/22 03:38:26;;;;;;;20.30;16.92;;;16.00;99.90;;;;;;5072253;28;20121;-56
2022/07/22 03:40:55;;;;;;;;;;;16.00;99.90;;;;;;5073738;28;20059;-53
2022/07/22 03:43:22;;;;;;;20.73;16.77;;;16.00;99.90;;;;;;5072442;28;20013;-54
2022/07/22 03:45:49;;;;;;;20.73;17.08;;;15.90;99.90;;;;;;5072290;28;20589;-55
2022/07/22 03:48:16;;;;;;;21.80;16.23;;;16.00;99.90;;;;;;5072786;28;20051;-53
2022/07/22 03:50:43;;;;;;;25.88;17.20;;;15.90;99.90;;;;;;5055215;28;20032;-52
2022/07/22 03:53:10;;;;;;;21.52;17.50;;;15.90;99.90;;;;;;5072852;28;20051;-54
2022/07/22 03:55:39;;;;;;;18.48;16.13;;;15.90;99.90;;;;;;5072243;28;20039;-54
2022/07/22 03:58:06;;;;;;;;;;;15.80;99.90;;;;;;5073127;28;20076;-53
2022/07/22 04:00:33;;;;;;;18.80;16.80;;;15.80;99.90;;;;;;5056169;28;19924;-53
2022/07/22 04:03:04;;;;;;;20.00;16.08;;;15.80;99.90;;;;;;5071140;28;20048;-53
2022/07/22 04:05:50;;;;;;;20.63;17.77;;;15.90;99.90;;;;;;5072358;28;20840;-52
2022/07/22 04:08:27;;;;;;;19.35;16.05;;;15.90;99.90;;;;;;5072057;28;20040;-52
2022/07/22 04:10:54;;;;;;;19.40;14.95;;;15.90;99.90;;;;;;5088578;28;20134;-54
2022/07/22 04:13:22;;;;;;;16.73;14.98;;;15.90;99.90;;;;;;5071319;28;20437;-52
2022/07/22 04:15:53;;;;;;;20.08;15.60;;;15.90;99.90;;;;;;5074194;28;20526;-55
2022/07/22 04:18:21;;;;;;;18.45;14.85;;;15.90;99.90;;;;;;5076315;28;20723;-52
2022/07/22 04:20:49;;;;;;;18.50;15.13;;;15.90;99.90;;;;;;5091880;28;20043;-55
2022/07/22 04:23:28;;;;;;;18.50;15.73;;;15.90;99.90;;;;;;5069701;28;20044;-54
2022/07/22 04:26:07;;;;;;;22.20;16.35;;;15.90;99.90;;;;;;5071985;28;20044;-53
2022/07/22 04:28:37;;;;;;;17.45;14.13;;;15.90;99.90;;;;;;5055324;28;20519;-55
2022/07/22 04:31:04;;;;;;;21.75;16.15;;;15.80;99.90;;;;;;5072013;28;20161;-53
2022/07/22 04:33:33;;;;;;;18.75;15.50;;;15.80;99.90;;;;;;5055357;28;20048;-51
2022/07/22 04:36:00;;;;;;;22.17;16.90;;;15.80;99.90;;;;;;5054198;28;20052;-53
2022/07/22 04:38:27;;;;;;;24.48;15.90;;;15.90;99.90;;;;;;5055151;28;20051;-54
2022/07/22 04:40:59;;;;;;;20.95;17.08;;;15.90;99.90;;;;;;5054684;28;20071;-54
2022/07/22 04:43:26;;;;;;;16.52;14.88;;;15.90;99.90;;;;;;5073636;28;20054;-52
2022/07/22 04:45:55;;;;;;;17.67;15.35;;;16.00;99.90;;;;;;5054891;28;20090;-54
2022/07/22 04:48:24;;;;;;;23.15;17.88;;;16.10;99.90;;;;;;5072526;28;20047;-51
2022/07/22 04:50:53;;;;;;;23.23;17.23;;;16.10;99.90;;;;;;5072584;28;20097;-53
2022/07/22 04:53:20;;;;;;;19.75;16.40;;;16.20;99.90;;;;;;5075753;28;20080;-54
2022/07/22 04:56:07;;;;;;;25.23;17.45;;;16.30;99.90;;;;;;5059271;28;20758;-50
2022/07/22 04:58:34;;;;;;;19.45;16.60;;;16.40;99.90;;;;;;5058161;28;20048;-53
2022/07/22 05:01:01;;;;;;;21.02;16.48;;;16.40;99.90;;;;;;5058684;28;20753;-52
2022/07/22 05:03:28;;;;;;;19.67;16.95;;;16.50;99.90;;;;;;5075007;28;20055;-54
2022/07/22 05:05:55;;;;;;;19.13;16.50;;;16.50;99.90;;;;;;5058652;28;20044;-52
2022/07/22 05:08:30;;;;;;;21.98;16.70;;;16.60;99.90;;;;;;5074659;28;20044;-53
2022/07/22 05:10:56;;;;;;;18.55;15.52;;;16.70;99.90;;;;;;5091872;28;20191;-53
2022/07/22 05:13:23;;;;;;;;;;;16.80;99.90;;;;;;5075560;28;20036;-46
2022/07/22 05:15:50;;;;;;;17.65;15.25;;;16.80;99.90;;;;;;5074820;28;20038;-49
2022/07/22 05:18:18;;;;;;;23.65;16.77;;;16.90;99.90;;;;;;5083724;28;20071;-47
2022/07/22 05:20:45;;;;;;;19.90;15.98;;;16.90;99.90;;;;;;5073598;28;20066;-50
2022/07/22 05:23:13;;;;;;;21.63;16.80;;;17.00;99.90;;;;;;5097031;28;20047;-49
2022/07/22 05:25:40;;;;;;;17.42;15.15;;;17.10;99.90;;;;;;5095265;28;20044;-48
2022/07/22 05:28:07;;;;;;;17.23;15.43;;;17.10;99.90;;;;;;5096251;28;20089;-47
2022/07/22 05:30:37;;;;;;;20.60;16.05;;;17.10;99.90;;;;;;5095226;28;20134;-51
2022/07/22 05:33:06;;;;;;;21.30;17.77;;;17.10;99.90;;;;;;5095070;28;20046;-48
2022/07/22 05:35:51;;;;;;;24.63;17.85;;;17.20;99.90;;;;;;5091895;28;20046;-48
2022/07/22 05:38:19;;;;;;;20.80;16.52;;;17.20;99.90;;;;;;5074266;28;20051;-48
2022/07/22 05:40:46;;;;;;;;;;;17.30;99.90;;;;;;5076115;28;20043;-48
2022/07/22 05:43:13;;;;;;;20.07;17.87;;;17.40;99.90;;;;;;5075069;28;20387;-48
2022/07/22 05:45:40;;;;;;;;;;;17.50;99.90;;;;;;5077038;28;20040;-47
2022/07/22 05:48:07;;;;;;;20.10;17.00;;;17.50;99.90;;;;;;5074526;28;19924;-54
2022/07/22 05:50:35;;;;;;;20.85;16.92;;;17.60;99.90;;;;;;5074903;28;20640;-47
2022/07/22 05:53:02;;;;;;;20.95;18.10;;;17.60;99.90;;;;;;5057735;28;20056;-47
2022/07/22 05:55:29;;;;;;;23.42;16.30;;;17.80;99.90;;;;;;5074607;28;20085;-47
2022/07/22 05:57:56;;;;;;;22.52;18.67;;;17.90;99.90;;;;;;5074609;28;20813;-49
2022/07/22 06:00:24;;;;;;;22.83;19.40;;;18.00;99.90;;;;;;5073434;28;20163;-46
2022/07/22 06:02:51;;;;;;;23.00;18.67;;;18.10;99.90;;;;;;5073344;28;20041;-49
2022/07/22 06:05:19;;;;;;;20.60;17.00;;;18.20;99.90;;;;;;5073944;28;20075;-54
2022/07/22 06:08:05;;;;;;;20.48;17.98;;;18.30;99.90;;;;;;5074174;28;20050;-65
2022/07/22 06:10:40;;;;;;;18.02;15.73;;;18.40;99.90;;;;;;5090625;28;20400;-64
2022/07/22 06:13:07;;;;;;;20.92;17.65;;;18.50;99.90;;;;;;5074502;28;20040;-60
2022/07/22 06:15:34;;;;;;;18.55;16.55;;;18.60;99.90;;;;;;5075725;28;20055;-63
2022/07/22 06:18:02;;;;;;;23.83;18.92;;;18.70;99.90;;;;;;5067218;28;20668;-61
2022/07/22 06:20:29;;;;;;;22.30;19.15;;;18.80;99.90;;;;;;5093288;28;20047;-50
2022/07/22 06:22:56;;;;;;;22.40;18.27;;;18.90;99.90;;;;;;5091548;28;20044;-46
2022/07/22 06:25:23;;;;;;;22.77;17.50;;;19.00;99.90;;;;;;5074413;28;20461;-48
2022/07/22 06:28:23;;;;;;;18.52;16.52;;;19.00;99.90;;;;;;5073471;28;20216;-47
2022/07/22 06:30:49;;;;;;;20.73;18.40;;;19.10;99.90;;;;;;5056990;28;20523;-46
2022/07/22 06:33:18;;;;;;;20.55;16.88;;;19.20;99.90;;;;;;5055936;28;20040;-50
2022/07/22 06:35:45;;;;;;;26.27;19.58;;;19.30;99.90;;;;;;5057713;28;20082;-48
2022/07/22 06:38:12;;;;;;;25.92;19.80;;;19.40;99.90;;;;;;5056276;28;20772;-51
2022/07/22 06:41:34;;;;;;;23.40;20.33;;;19.50;99.90;;;;;;5051915;28;20923;-49
2022/07/22 06:44:04;;;;;;;25.83;19.55;;;19.60;99.90;;;;;;5051072;28;20063;-49
2022/07/22 06:46:46;;;;;;;26.00;19.85;;;19.60;99.90;;;;;;5065883;28;20216;-48
2022/07/22 06:49:16;;;;;;;22.77;18.73;;;19.70;99.90;;;;;;5057723;28;20660;-50
2022/07/22 06:51:44;;;;;;;22.90;19.13;;;19.80;99.90;;;;;;5056606;28;20048;-50
2022/07/22 06:54:11;;;;;;;24.35;18.92;;;19.90;99.90;;;;;;5056391;28;20059;-49
2022/07/22 06:56:38;;;;;;;21.73;18.77;;;20.00;99.90;;;;;;5055647;28;20040;-50
2022/07/22 06:59:08;;;;;;;22.00;17.17;;;20.20;99.90;;;;;;5073413;28;20079;-52
2022/07/22 07:01:35;;;;;;;20.77;18.58;;;20.30;99.90;;;;;;5056381;28;20139;-48
2022/07/22 07:04:03;;;;;;;21.27;17.42;;;20.40;99.90;;;;;;5056760;28;20499;-62
2022/07/22 07:06:30;;;;;;;23.30;19.13;;;20.60;99.90;;;;;;5039489;28;20154;-62
2022/07/22 07:09:07;;;;;;;21.65;17.40;;;20.70;99.90;;;;;;5056115;28;20231;-64
2022/07/22 07:11:35;;;;;;;23.15;17.92;;;20.90;99.90;;;;;;5081483;28;20087;-64
2022/07/22 07:14:10;;;;;;;21.45;19.00;;;21.10;99.90;;;;;;5078682;28;20040;-66
2022/07/22 07:16:37;;;;;;;22.60;16.90;;;21.20;99.90;;;;;;5074758;28;20105;-63
2022/07/22 07:19:04;;;;;;;21.30;18.95;;;21.30;99.90;;;;;;5073770;28;20273;-66
2022/07/22 07:21:32;;;;;;;20.88;17.50;;;21.40;99.90;;;;;;5071989;28;20063;-63
2022/07/22 07:23:59;;;;;;;22.65;19.10;;;21.50;99.90;;;;;;5092994;28;20042;-64
2022/07/22 07:26:26;;;;;;;26.77;20.15;;;21.70;99.90;;;;;;5093155;28;20159;-63
2022/07/22 07:28:53;;;;;;;33.05;18.95;;;21.80;99.90;;;;;;5094024;28;20119;-66
2022/07/22 07:31:37;;;;;;;27.48;21.70;;;21.90;99.90;;;;;;5076087;28;20036;-62
2022/07/22 07:34:11;;;;;;;24.20;20.90;;;22.00;99.90;;;;;;5092466;28;20050;-61
2022/07/22 07:36:38;;;;;;;24.77;20.13;;;22.10;99.90;;;;;;5094808;28;20043;-61
2022/07/22 07:39:06;;;;;;;27.27;19.60;;;22.20;99.90;;;;;;5075029;28;20694;-63
2022/07/22 07:41:33;;;;;;;22.95;20.50;;;22.20;99.90;;;;;;5093149;28;20045;-62
2022/07/22 07:44:00;;;;;;;23.95;20.13;;;22.30;99.90;;;;;;5075411;28;20047;-61
2022/07/22 07:46:27;;;;;;;23.55;19.23;;;22.40;99.90;;;;;;5075612;28;20040;-62
2022/07/22 07:48:55;;;;;;;22.23;18.95;;;22.60;99.90;;;;;;5092744;28;20048;-62
2022/07/22 07:51:23;;;;;;;25.40;19.88;;;22.70;99.90;;;;;;5092927;28;20335;-62
2022/07/22 07:53:51;;;;;;;22.10;17.85;;;22.80;99.90;;;;;;5093008;28;20046;-63
2022/07/22 07:56:18;;;;;;;22.40;18.98;;;22.90;99.90;;;;;;5092329;28;20043;-63
2022/07/22 07:58:46;;;;;;;21.35;17.67;;;23.00;99.90;;;;;;5092899;28;20050;-63
2022/07/22 08:01:33;;;;;;;;;;;23.20;99.90;;;;;;5093456;28;20510;-62
2022/07/22 08:04:21;;;;;;;21.52;18.17;;;23.50;99.90;;;;;;5075994;28;19927;-64
2022/07/22 08:07:07;;;;;;;20.13;18.08;;;23.70;99.90;;;;;;5077933;28;20058;-61
2022/07/22 08:09:37;;;;;;;22.17;18.25;;;23.90;99.90;;;;;;5068561;28;20473;-64
2022/07/22 08:12:10;;;;;;;24.17;16.77;;;24.10;99.90;;;;;;5084428;28;20040;-62
2022/07/22 08:14:52;;;;;;;28.60;17.77;;;24.20;99.90;;;;;;5055152;28;20547;-62
2022/07/22 08:17:42;;;;;;;30.55;19.13;;;24.50;99.90;;;;;;5072410;28;20046;-62
2022/07/22 08:20:09;;;;;;;23.45;16.73;;;24.90;99.90;;;;;;5071120;28;20136;-62
2022/07/22 08:22:36;;;;;;;23.60;17.05;;;25.30;99.90;;;;;;5082505;28;20044;-61
2022/07/22 08:25:04;;;;;;;21.08;18.00;;;25.70;99.90;;;;;;5068424;28;20064;-62
2022/07/22 08:27:31;;;;;;;21.70;17.73;;;26.10;99.90;;;;;;5076150;28;20044;-62
2022/07/22 08:29:59;;;;;;;29.77;17.38;;;26.30;99.90;;;;;;5058568;28;20058;-62
2022/07/22 08:32:25;;;;;;;20.50;17.85;;;26.60;99.90;;;;;;5057690;28;20507;-62
2022/07/22 08:34:52;;;;;;;17.60;15.43;;;26.80;99.90;;;;;;5057875;28;20044;-62
2022/07/22 08:37:19;;;;;;;18.65;15.57;;;27.00;99.90;;;;;;5074654;28;20054;-63
2022/07/22 08:39:46;;;;;;;23.38;16.98;;;27.30;99.90;;;;;;5077240;28;20090;-63
2022/07/22 08:42:13;;;;;;;22.27;17.35;;;27.50;99.90;;;;;;5077742;28;20048;-64
2022/07/22 08:44:40;;;;;;;18.90;16.77;;;27.70;99.90;;;;;;5095096;28;20126;-64
2022/07/22 08:47:07;;;;;;;20.90;16.55;;;27.90;99.90;;;;;;5095389;28;20146;-64
2022/07/22 08:50:11;;;;;;;22.80;18.13;;;28.10;99.90;;;;;;5095581;28;20068;-62
2022/07/22 08:52:51;;;;;;;21.25;17.25;;;28.30;99.90;;;;;;5095170;28;20554;-61
2022/07/22 08:55:18;;;;;;;17.27;15.48;;;28.40;99.90;;;;;;5096009;28;20632;-61
2022/07/22 08:57:46;;;;;;;21.50;16.45;;;28.40;99.90;;;;;;5095405;28;20044;-61
2022/07/22 09:00:21;;;;;;;24.02;16.50;;;28.60;99.90;;;;;;5096193;28;20282;-62
2022/07/22 09:02:49;;;;;;;16.70;15.00;;;28.70;99.90;;;;;;5095005;28;20075;-61
2022/07/22 09:05:18;;;;;;;18.38;15.32;;;28.90;99.90;;;;;;5095996;28;20047;-62
2022/07/22 09:08:06;;;;;;;21.90;14.82;;;29.10;98.80;;;;;;5095276;28;20128;-62
2022/07/22 09:10:51;;;;;;;18.75;15.38;;;29.20;96.10;;;;;;5079665;28;20132;-62
2022/07/22 09:13:48;;;;;;;16.05;14.45;;;29.40;97.00;;;;;;5041487;28;20061;-62
2022/07/22 09:16:47;;;;;;;19.38;15.68;;;29.60;95.70;;;;;;5044065;28;20052;-62
2022/07/22 09:19:38;;;;;;;18.15;15.80;;;29.70;93.80;;;;;;5075911;28;20056;-60
2022/07/22 09:22:40;;;;;;;20.77;15.15;;;29.80;94.00;;;;;;5080224;28;20177;-62
2022/07/22 09:25:23;;;;;;;19.90;14.32;;;29.90;93.40;;;;;;5075422;28;20062;-62
2022/07/22 09:28:16;;;;;;;21.35;14.98;;;30.00;93.10;;;;;;5095344;28;20048;-63
2022/07/22 09:31:26;;;;;;;19.73;14.60;;;30.10;90.80;;;;;;5067129;28;20227;-63
2022/07/22 09:34:02;;;;;;;19.05;13.85;;;30.20;90.30;;;;;;5077086;28;20470;-63
2022/07/22 09:36:30;;;;;;;17.27;15.43;;;30.30;90.30;;;;;;5061047;28;20040;-63
2022/07/22 09:38:58;;;;;;;15.57;12.65;;;30.50;89.80;;;;;;5072198;28;20578;-65
2022/07/22 09:41:25;;;;;;;16.48;13.10;;;30.60;86.60;;;;;;5074037;28;20903;-65
2022/07/22 09:43:53;;;;;;;19.65;14.98;;;30.70;85.50;;;;;;5092099;28;20040;-64
2022/07/22 09:46:37;;;;;;;14.90;13.27;;;30.90;77.80;;;;;;5077743;28;20059;-67
2022/07/22 09:49:33;;;;;;;17.88;12.40;;;31.00;78.10;;;;;;5093874;28;20138;-66
2022/07/22 09:52:19;;;;;;;13.75;11.65;;;31.20;76.20;;;;;;5096021;28;20173;-65
2022/07/22 09:55:15;;;;;;;15.77;12.27;;;31.30;73.20;;;;;;5092459;28;20096;-64
2022/07/22 09:57:43;;;;;;;14.48;11.93;;;31.30;72.80;;;;;;5060793;28;20050;-65
2022/07/22 10:00:12;;;;;;;15.38;12.82;;;31.30;73.30;;;;;;5095476;28;20476;-64
2022/07/22 10:02:50;;;;;;;18.77;12.82;;;31.50;70.10;;;;;;5094278;28;20055;-65
2022/07/22 10:05:22;;;;;;;13.70;11.57;;;31.60;71.40;;;;;;5093708;28;20577;-65
2022/07/22 10:07:51;;;;;;;14.23;11.77;;;31.70;68.40;;;;;;5081031;28;20071;-65
2022/07/22 10:10:20;;;;;;;11.90;10.68;;;31.80;67.80;;;;;;5087212;28;20047;-62
2022/07/22 10:12:49;;;;;;;12.25;10.73;;;31.80;65.20;;;;;;5059092;28;20047;-64
2022/07/22 10:15:17;;;;;;;12.27;11.07;;;32.00;64.40;;;;;;5076670;28;20132;-63
2022/07/22 10:17:50;;;;;;;16.30;11.60;;;32.10;63.00;;;;;;5071400;28;20047;-64
2022/07/22 10:20:21;;;;;;;12.18;10.48;;;32.10;59.90;;;;;;5093919;28;20100;-65
2022/07/22 10:23:01;;;;;;;13.48;10.07;;;32.10;59.20;;;;;;5093087;28;20051;-62
2022/07/22 10:25:49;;;;;;;9.98;9.02;;;32.10;58.50;;;;;;5074568;28;20046;-65
2022/07/22 10:28:23;;;;;;;13.57;10.13;;;32.20;57.10;;;;;;5076099;28;20384;-64
2022/07/22 10:30:51;;;;;;;12.82;9.60;;;32.10;58.20;;;;;;5095350;28;20040;-64
2022/07/22 10:33:20;;;;;;;11.25;9.13;;;32.00;58.40;;;;;;5061381;28;20039;-62
2022/07/22 10:35:57;;;;;;;11.13;10.13;;;32.10;57.10;;;;;;5082010;28;20035;-64
2022/07/22 10:38:25;;;;;;;10.95;9.38;;;32.10;56.80;;;;;;5082910;28;20040;-62
2022/07/22 10:41:07;;;;;;;11.65;9.30;;;32.10;56.30;;;;;;5076405;28;20051;-62
2022/07/22 10:43:43;;;;;;;12.20;10.02;;;32.10;57.00;;;;;;5074027;28;20051;-62
2022/07/22 10:46:10;;;;;;;13.73;8.83;;;32.20;57.30;;;;;;5073725;28;20131;-64
2022/07/22 10:48:37;;;;;;;10.77;8.88;;;32.30;57.80;;;;;;5074013;28;20470;-65
2022/07/22 10:51:11;;;;;;;16.02;9.20;;;32.30;56.70;;;;;;5086569;28;20047;-64
2022/07/22 10:54:01;;;;;;;9.70;8.68;;;32.40;55.40;;;;;;5081184;28;20127;-64
2022/07/22 10:56:35;;;;;;;13.73;9.32;;;32.40;55.30;;;;;;5083665;28;20873;-62
2022/07/22 10:59:13;;;;;;;9.02;8.13;;;32.50;55.30;;;;;;5067208;28;20054;-67
2022/07/22 11:01:43;;;;;;;11.23;8.48;;;32.50;53.80;;;;;;5083654;28;20050;-65
2022/07/22 11:04:22;;;;;;;13.10;9.35;;;32.50;53.60;;;;;;5083966;28;20088;-63
2022/07/22 11:06:53;;;;;;;13.63;8.45;;;32.50;52.90;;;;;;5083312;28;20050;-62
2022/07/22 11:09:31;;;;;;;11.82;9.02;;;32.50;53.20;;;;;;5089784;28;20035;-62
2022/07/22 11:11:59;;;;;;;8.80;7.80;;;32.50;53.60;;;;;;5083608;28;20051;-61
2022/07/22 11:14:35;;;;;;;9.98;8.27;;;32.50;53.40;;;;;;5066011;28;20093;-62
2022/07/22 11:17:11;;;;;;;10.57;7.97;;;32.40;52.80;;;;;;5064641;28;20032;-61
2022/07/22 11:19:39;;;;;;;9.65;8.65;;;32.40;52.90;;;;;;5063341;28;21640;-62
2022/07/22 11:22:09;;;;;;;10.75;8.90;;;32.40;52.20;;;;;;5084081;28;20035;-62
2022/07/22 11:24:37;;;;;;;12.80;8.35;;;32.40;52.60;;;;;;5092569;28;20051;-62
2022/07/22 11:27:08;;;;;;;10.02;8.80;;;32.50;52.30;;;;;;5091235;28;20032;-62
2022/07/22 11:29:39;;;;;;;8.98;8.13;;;32.60;52.70;;;;;;5082573;28;20147;-61
2022/07/22 11:32:09;;;;;;;14.23;8.85;;;32.70;51.70;;;;;;5084561;28;20036;-61
2022/07/22 11:34:42;;;;;;;13.25;8.60;;;32.80;52.90;;;;;;5085023;28;20774;-62
2022/07/22 11:37:09;;;;;;;10.65;8.25;;;32.80;51.90;;;;;;5086299;28;20080;-62
2022/07/22 11:39:36;;;;;;;11.55;8.30;;;32.90;51.00;;;;;;5090758;28;20039;-60
2022/07/22 11:42:04;;;;;;;12.00;8.77;;;33.00;51.80;;;;;;5087368;28;20081;-62
2022/07/22 11:44:34;;;;;;;7.78;6.97;;;33.10;51.60;;;;;;5075033;28;20491;-62
2022/07/22 11:47:01;;;;;;;9.48;8.55;;;33.00;50.90;;;;;;5085963;28;20041;-62
2022/07/22 11:49:31;;;;;;;9.63;8.70;;;33.20;51.10;;;;;;5081007;28;20840;-64
2022/07/22 11:51:58;;;;;;;12.65;8.88;;;33.30;51.80;;;;;;5077581;28;20044;-63
2022/07/22 11:54:24;;;;;;;12.35;8.63;;;33.30;51.50;;;;;;5073018;28;20052;-62
2022/07/22 11:56:52;;;;;;;11.77;7.80;;;33.40;51.00;;;;;;5073335;28;20674;-62
2022/07/22 11:59:23;;;;;;;9.55;8.63;;;33.40;49.60;;;;;;5082167;28;20531;-60
2022/07/22 12:01:51;;;;;;;10.55;8.93;;;33.40;49.80;;;;;;5078517;28;20040;-61
2022/07/22 12:04:28;;;;;;;13.43;9.07;;;33.60;50.00;;;;;;5075571;28;20123;-61
2022/07/22 12:06:58;;;;;;;10.98;8.35;;;33.60;50.10;;;;;;5076815;28;20071;-62
2022/07/22 12:09:28;;;;;;;11.68;8.02;;;33.80;47.90;;;;;;5082511;28;20882;-62
2022/07/22 12:11:59;;;;;;;9.55;8.60;;;33.80;48.60;;;;;;5086073;28;20051;-60
2022/07/22 12:14:29;;;;;;;12.70;8.95;;;33.70;49.30;;;;;;5076118;28;20895;-62
2022/07/22 12:17:15;;;;;;;8.38;7.47;;;33.70;48.90;;;;;;5076160;28;20111;-61
2022/07/22 12:19:42;;;;;;;11.23;7.97;;;33.70;48.60;;;;;;5084291;28;20043;-62
2022/07/22 12:22:13;;;;;;;9.40;8.40;;;33.80;49.20;;;;;;5080922;28;20040;-61
2022/07/22 12:24:43;;;;;;;10.75;8.35;;;33.90;47.20;;;;;;5091918;28;20819;-61
2022/07/22 12:27:14;;;;;;;11.88;8.55;;;34.00;46.60;;;;;;5091102;28;20075;-62
2022/07/22 12:29:44;;;;;;;9.25;8.27;;;34.00;47.50;;;;;;5093814;28;20051;-61
2022/07/22 12:32:31;;;;;;;10.65;8.48;;;34.20;46.50;;;;;;5065128;28;20028;-62
2022/07/22 12:35:01;;;;;;;11.77;8.50;;;34.30;47.20;;;;;;5089823;28;20738;-66
2022/07/22 12:37:30;;;;;;;8.80;7.90;;;34.30;46.00;;;;;;5089834;28;20657;-66
2022/07/22 12:40:02;;;;;;;10.27;8.75;;;34.30;45.80;;;;;;5085798;28;20036;-63
2022/07/22 12:42:35;;;;;;;10.13;7.72;;;34.30;44.50;;;;;;5090110;28;20069;-62
2022/07/22 12:45:25;;;;;;;11.35;7.78;;;34.30;47.20;;;;;;5075400;28;20051;-63
2022/07/22 12:47:55;;;;;;;11.50;8.60;;;34.40;45.90;;;;;;5076889;28;20089;-62
2022/07/22 12:50:32;;;;;;;8.93;8.07;;;34.40;46.40;;;;;;5085468;28;20114;-62
2022/07/22 12:53:04;;;;;;;;;;;34.50;47.40;;;;;;5084240;28;20047;-62